Time;durP1;ratioP1;P1;durP2;ratioP2;P2;SDS_P1;SDS_P2;PMS_P1;PMS_P2;Temp;Humidity;BMP_temperature;BMP_pressure;BME280_temperature;BME280_humidity;BME280_pressure;Samples;Min_cycle;Max_cycle;Signal;HPM_P1;HPM_P2
2022/02/16 00:01:23;;;;;;;23.77;11.77;;;7.30;99.90;;;;;;5036673;28;20131;-72
2022/02/16 00:03:49;;;;;;;26.48;12.95;;;7.20;99.90;;;;;;5021898;28;20048;-72
2022/02/16 00:06:15;;;;;;;27.65;12.13;;;7.20;99.90;;;;;;5033609;28;20060;-73
2022/02/16 00:08:42;;;;;;;22.90;11.70;;;7.20;99.90;;;;;;5004513;28;20045;-72
2022/02/16 00:11:08;;;;;;;24.83;11.43;;;7.20;99.90;;;;;;5021636;28;20146;-72
2022/02/16 00:13:34;;;;;;;19.40;11.35;;;7.20;99.90;;;;;;4990102;28;20037;-73
2022/02/16 00:16:00;;;;;;;23.88;12.60;;;7.20;99.90;;;;;;5039835;28;20130;-73
2022/02/16 00:18:26;;;;;;;20.25;11.13;;;7.20;99.90;;;;;;5038663;28;20515;-73
2022/02/16 00:20:52;;;;;;;22.92;11.18;;;7.20;99.90;;;;;;5007307;28;20499;-73
2022/02/16 00:23:19;;;;;;;25.05;10.85;;;7.20;99.90;;;;;;5040421;28;20562;-73
2022/02/16 00:25:45;;;;;;;21.42;10.00;;;7.20;99.90;;;;;;5024920;28;20056;-72
2022/02/16 00:28:12;;;;;;;16.95;8.93;;;7.20;99.90;;;;;;5056131;28;20467;-72
2022/02/16 00:30:38;;;;;;;22.00;9.10;;;7.20;99.90;;;;;;5022560;28;20152;-72
2022/02/16 00:33:04;;;;;;;22.45;9.15;;;7.10;99.90;;;;;;5023577;28;20091;-72
2022/02/16 00:35:30;;;;;;;22.80;9.07;;;7.10;99.90;;;;;;5022952;28;20057;-73
2022/02/16 00:37:56;;;;;;;30.27;9.38;;;7.10;99.90;;;;;;5004291;28;20592;-73
2022/02/16 00:40:22;;;;;;;21.70;8.95;;;7.20;99.90;;;;;;5025267;28;20048;-73
2022/02/16 00:42:49;;;;;;;25.08;7.63;;;7.20;99.90;;;;;;5039799;28;20053;-72
2022/02/16 00:45:15;;;;;;;20.60;6.38;;;7.10;99.90;;;;;;5023574;28;20044;-73
2022/02/16 00:47:41;;;;;;;27.30;7.78;;;7.10;99.90;;;;;;5040479;28;20033;-74
2022/02/16 00:50:08;;;;;;;23.63;7.05;;;7.10;99.90;;;;;;5035179;28;20047;-74
2022/02/16 00:52:38;;;;;;;22.17;8.18;;;7.10;99.90;;;;;;4992643;28;20609;-73
2022/02/16 00:55:06;;;;;;;22.33;7.70;;;7.10;99.90;;;;;;5024340;28;20450;-72
2022/02/16 00:57:33;;;;;;;22.42;8.18;;;7.10;99.90;;;;;;5024318;28;20048;-72
2022/02/16 00:59:59;;;;;;;25.95;9.23;;;7.20;99.90;;;;;;5043382;28;20045;-74
2022/02/16 01:02:26;;;;;;;25.40;8.75;;;7.10;99.90;;;;;;5012349;28;20535;-73
2022/02/16 01:04:52;;;;;;;24.98;9.13;;;7.10;99.90;;;;;;5002310;28;20056;-72
2022/02/16 01:07:19;;;;;;;20.83;8.00;;;7.10;99.90;;;;;;5026417;28;20536;-73
2022/02/16 01:09:46;;;;;;;21.45;8.38;;;7.10;99.90;;;;;;5026331;28;20048;-73
2022/02/16 01:12:12;;;;;;;23.30;7.85;;;7.10;99.90;;;;;;5025934;28;20057;-74
2022/02/16 01:14:40;;;;;;;22.80;8.80;;;7.10;99.90;;;;;;5026503;28;20055;-73
2022/02/16 01:17:21;;;;;;;19.15;7.55;;;7.10;99.90;;;;;;5027263;28;20045;-73
2022/02/16 01:19:54;;;;;;;21.27;8.65;;;7.10;99.90;;;;;;4995135;28;20037;-74
2022/02/16 01:22:21;;;;;;;18.85;8.00;;;7.10;99.90;;;;;;4994778;28;20080;-74
2022/02/16 01:24:47;;;;;;;21.45;8.13;;;7.10;99.90;;;;;;5038911;28;20048;-74
2022/02/16 01:27:15;;;;;;;20.55;9.73;;;7.10;99.90;;;;;;4992799;28;20056;-75
2022/02/16 01:29:42;;;;;;;25.10;10.95;;;7.10;99.90;;;;;;5007627;28;20092;-74
2022/02/16 01:32:25;;;;;;;21.02;11.50;;;7.10;99.90;;;;;;5011896;28;20055;-72
2022/02/16 01:34:51;;;;;;;23.38;15.48;;;7.10;99.90;;;;;;5009552;28;20045;-74
2022/02/16 01:37:17;;;;;;;26.55;14.43;;;7.10;99.90;;;;;;5025365;28;20133;-74
2022/02/16 01:39:44;;;;;;;25.58;16.13;;;7.20;99.90;;;;;;5008219;28;20053;-75
2022/02/16 01:42:18;;;;;;;31.33;16.27;;;7.20;99.90;;;;;;5011060;28;20048;-73
2022/02/16 01:44:50;;;;;;;29.83;17.42;;;7.20;99.90;;;;;;5019361;28;20059;-73
2022/02/16 01:47:16;;;;;;;31.88;17.90;;;7.20;99.90;;;;;;5011100;28;20055;-72
2022/02/16 01:49:43;;;;;;;31.02;19.77;;;7.20;99.90;;;;;;4998929;28;20057;-73
2022/02/16 01:52:11;;;;;;;26.88;17.65;;;7.20;99.90;;;;;;5028860;28;20057;-74
2022/02/16 01:54:42;;;;;;;26.23;18.08;;;7.20;99.90;;;;;;5014285;28;20041;-73
2022/02/16 01:57:09;;;;;;;25.15;18.23;;;7.20;99.90;;;;;;5013364;28;20041;-73
2022/02/16 01:59:41;;;;;;;29.35;19.10;;;7.20;99.90;;;;;;5011927;28;20045;-73
2022/02/16 02:02:26;;;;;;;27.17;18.70;;;7.20;99.90;;;;;;5028869;28;20048;-73
2022/02/16 02:04:58;;;;;;;25.23;18.08;;;7.20;99.90;;;;;;5027528;28;20099;-73
2022/02/16 02:07:24;;;;;;;31.63;18.20;;;7.30;99.90;;;;;;5012320;28;20077;-72
2022/02/16 02:09:50;;;;;;;23.15;17.88;;;7.20;99.90;;;;;;4994918;28;20445;-73
2022/02/16 02:12:16;;;;;;;26.83;19.17;;;7.20;99.90;;;;;;5013061;28;20468;-73
2022/02/16 02:14:49;;;;;;;28.35;18.45;;;7.30;99.90;;;;;;5028625;28;20091;-73
2022/02/16 02:17:24;;;;;;;31.67;20.97;;;7.30;99.90;;;;;;5046595;28;20107;-73
2022/02/16 02:19:50;;;;;;;27.42;20.98;;;7.40;99.90;;;;;;5031838;28;20132;-73
2022/02/16 02:22:16;;;;;;;32.78;22.88;;;7.40;99.90;;;;;;5031534;28;20049;-73
2022/02/16 02:24:42;;;;;;;28.45;22.50;;;7.40;99.90;;;;;;4998091;28;20049;-73
2022/02/16 02:27:09;;;;;;;33.03;22.65;;;7.40;99.90;;;;;;5034375;28;20053;-72
2022/02/16 02:29:39;;;;;;;28.80;23.30;;;7.40;99.90;;;;;;5034082;28;20106;-72
2022/02/16 02:32:05;;;;;;;30.13;25.00;;;7.40;99.90;;;;;;5001916;28;20114;-72
2022/02/16 02:34:31;;;;;;;37.25;26.20;;;7.40;99.90;;;;;;5012754;28;20083;-74
2022/02/16 02:36:58;;;;;;;37.38;25.95;;;7.40;99.90;;;;;;5012381;28;20139;-72
2022/02/16 02:39:24;;;;;;;35.08;26.42;;;7.40;99.90;;;;;;5033812;28;20048;-72
2022/02/16 02:41:50;;;;;;;35.08;28.10;;;7.40;99.90;;;;;;5030658;28;20095;-72
2022/02/16 02:44:16;;;;;;;34.33;27.80;;;7.50;99.90;;;;;;5030993;28;20086;-72
2022/02/16 02:46:44;;;;;;;36.63;27.83;;;7.40;99.90;;;;;;5008683;28;20092;-73
2022/02/16 02:49:11;;;;;;;37.22;28.17;;;7.50;99.90;;;;;;4981720;28;20594;-76
2022/02/16 02:51:37;;;;;;;38.53;29.02;;;7.50;99.90;;;;;;5006592;28;20049;-74
2022/02/16 02:54:04;;;;;;;36.38;29.02;;;7.50;99.90;;;;;;5057427;28;20415;-74
2022/02/16 02:56:42;;;;;;;38.22;28.85;;;7.50;99.90;;;;;;4995453;28;20041;-74
2022/02/16 02:59:08;;;;;;;37.00;29.05;;;7.50;99.90;;;;;;5001267;28;20564;-73
2022/02/16 03:01:39;;;;;;;38.60;28.42;;;7.60;99.90;;;;;;5000387;28;20400;-72
2022/02/16 03:04:05;;;;;;;36.95;28.88;;;7.60;99.90;;;;;;5000995;28;20526;-72
2022/02/16 03:06:33;;;;;;;37.70;28.23;;;7.60;99.90;;;;;;5008968;28;20047;-74
2022/02/16 03:08:59;;;;;;;34.95;28.73;;;7.60;99.90;;;;;;5045888;28;20504;-72
2022/02/16 03:11:26;;;;;;;36.47;27.50;;;7.60;99.90;;;;;;5015433;28;20060;-72
2022/02/16 03:13:52;;;;;;;35.78;26.42;;;7.70;99.90;;;;;;4965765;28;20499;-71
2022/02/16 03:16:28;;;;;;;38.10;27.95;;;7.70;99.90;;;;;;5015337;28;20068;-71
2022/02/16 03:18:55;;;;;;;39.67;29.15;;;7.70;99.90;;;;;;5032517;28;20493;-72
2022/02/16 03:21:21;;;;;;;38.67;26.38;;;7.70;99.90;;;;;;5026691;28;20055;-74
2022/02/16 03:23:47;;;;;;;34.72;26.15;;;7.70;99.90;;;;;;5039997;28;20416;-75
2022/02/16 03:26:13;;;;;;;35.78;26.48;;;7.80;99.90;;;;;;4975510;28;20060;-75
2022/02/16 03:28:39;;;;;;;38.28;27.08;;;7.80;99.90;;;;;;5006696;28;20094;-75
2022/02/16 03:31:16;;;;;;;35.97;27.35;;;7.80;99.90;;;;;;5024506;28;20060;-72
2022/02/16 03:33:45;;;;;;;36.85;26.00;;;7.80;99.90;;;;;;5023267;28;20141;-72
2022/02/16 03:36:13;;;;;;;36.50;26.33;;;7.80;99.90;;;;;;5005360;28;20092;-72
2022/02/16 03:38:39;;;;;;;37.25;27.30;;;7.80;99.90;;;;;;5021299;28;20064;-72
2022/02/16 03:41:06;;;;;;;35.92;25.85;;;7.80;99.90;;;;;;5023675;28;20107;-74
2022/02/16 03:43:33;;;;;;;37.20;26.73;;;7.80;99.90;;;;;;5022232;28;20044;-72
2022/02/16 03:45:59;;;;;;;38.70;27.63;;;7.80;99.90;;;;;;5023107;28;20049;-72
2022/02/16 03:48:28;;;;;;;35.13;25.35;;;7.80;99.90;;;;;;5023088;28;20060;-71
2022/02/16 03:50:54;;;;;;;40.38;25.27;;;7.80;99.90;;;;;;5007379;28;21527;-72
2022/02/16 03:53:21;;;;;;;39.78;25.45;;;7.80;99.90;;;;;;5026051;28;20474;-72
2022/02/16 03:55:48;;;;;;;35.88;24.13;;;7.80;99.90;;;;;;4990935;28;20059;-70
2022/02/16 03:58:14;;;;;;;33.38;25.02;;;7.80;99.90;;;;;;5040145;28;20045;-70
2022/02/16 04:00:40;;;;;;;32.55;23.17;;;7.80;99.90;;;;;;5024264;28;20512;-69
2022/02/16 04:03:08;;;;;;;33.45;22.40;;;7.80;99.90;;;;;;5022362;28;20110;-70
2022/02/16 04:05:36;;;;;;;30.88;21.38;;;7.80;99.90;;;;;;4991443;28;20037;-69
2022/02/16 04:08:03;;;;;;;30.38;20.98;;;7.80;99.90;;;;;;5021901;28;20647;-70
2022/02/16 04:10:29;;;;;;;26.85;20.33;;;7.80;99.90;;;;;;5021236;28;20126;-71
2022/02/16 04:12:55;;;;;;;28.05;19.10;;;7.80;99.90;;;;;;5006790;28;20049;-72
2022/02/16 04:15:21;;;;;;;24.13;18.40;;;7.70;99.90;;;;;;4990146;28;20068;-71
2022/02/16 04:17:52;;;;;;;26.67;19.25;;;7.70;99.90;;;;;;5021763;28;20087;-71
2022/02/16 04:20:19;;;;;;;25.95;19.02;;;7.80;99.90;;;;;;5036131;28;20052;-71
2022/02/16 04:22:49;;;;;;;30.13;18.58;;;7.80;99.90;;;;;;5014932;28;20053;-70
2022/02/16 04:25:16;;;;;;;26.27;17.25;;;7.80;99.90;;;;;;5023126;28;20060;-70
2022/02/16 04:27:44;;;;;;;27.60;17.30;;;7.70;99.90;;;;;;5022278;28;20049;-69
2022/02/16 04:30:11;;;;;;;28.42;17.30;;;7.70;99.90;;;;;;5024569;28;20135;-69
2022/02/16 04:32:39;;;;;;;28.63;16.52;;;7.70;99.90;;;;;;5023486;28;20506;-70
2022/02/16 04:35:06;;;;;;;25.77;17.00;;;7.70;99.90;;;;;;5019198;28;20111;-71
2022/02/16 04:37:33;;;;;;;26.63;17.80;;;7.70;99.90;;;;;;5035392;28;20080;-71
2022/02/16 04:39:59;;;;;;;24.90;16.33;;;7.70;99.90;;;;;;5019825;28;20049;-71
2022/02/16 04:42:25;;;;;;;25.75;16.02;;;7.70;99.90;;;;;;5010183;28;20098;-72
2022/02/16 04:44:51;;;;;;;24.08;15.18;;;7.70;99.90;;;;;;5004347;28;20049;-72
2022/02/16 04:47:18;;;;;;;27.10;16.13;;;7.70;99.90;;;;;;5007949;28;20085;-72
2022/02/16 04:49:45;;;;;;;24.17;15.68;;;7.70;99.90;;;;;;5010115;28;20136;-71
2022/02/16 04:52:11;;;;;;;25.27;15.63;;;7.70;99.90;;;;;;5028834;28;20057;-72
2022/02/16 04:54:37;;;;;;;22.08;15.82;;;7.70;99.90;;;;;;5023242;28;20120;-71
2022/02/16 04:57:04;;;;;;;23.95;16.20;;;7.70;99.90;;;;;;5009496;28;20124;-72
2022/02/16 04:59:39;;;;;;;23.58;15.55;;;7.80;99.90;;;;;;5026416;28;20051;-71
2022/02/16 05:02:05;;;;;;;24.58;16.10;;;7.80;99.90;;;;;;5008672;28;20500;-72
2022/02/16 05:04:31;;;;;;;26.50;17.50;;;7.90;99.90;;;;;;5007297;28;20144;-71
2022/02/16 05:06:58;;;;;;;28.30;18.27;;;7.90;99.90;;;;;;5022469;28;20051;-72
2022/02/16 05:09:24;;;;;;;23.85;17.00;;;7.90;99.90;;;;;;5025149;28;20084;-72
2022/02/16 05:11:51;;;;;;;24.65;19.63;;;7.90;99.90;;;;;;4995165;28;20052;-71
2022/02/16 05:14:18;;;;;;;25.85;17.92;;;7.90;99.90;;;;;;5026484;28;20053;-71
2022/02/16 05:16:48;;;;;;;26.17;18.92;;;7.90;99.90;;;;;;5013064;28;20057;-71
2022/02/16 05:19:15;;;;;;;28.58;18.65;;;8.00;99.90;;;;;;4995557;28;20563;-71
2022/02/16 05:21:44;;;;;;;29.05;20.67;;;8.00;99.90;;;;;;5026996;28;20369;-72
2022/02/16 05:24:14;;;;;;;29.75;20.33;;;8.00;99.90;;;;;;5011616;28;20057;-71
2022/02/16 05:26:45;;;;;;;26.92;20.48;;;8.10;99.90;;;;;;4993358;28;20098;-73
2022/02/16 05:29:12;;;;;;;27.10;19.58;;;8.10;99.90;;;;;;4981719;28;20135;-71
2022/02/16 05:31:44;;;;;;;;;;;8.10;99.90;;;;;;5027498;28;20057;-70
2022/02/16 05:34:11;;;;;;;25.17;19.25;;;8.20;99.90;;;;;;5010432;28;19947;-72
2022/02/16 05:36:39;;;;;;;24.58;20.70;;;8.20;99.90;;;;;;5026979;28;20092;-70
2022/02/16 05:39:05;;;;;;;24.10;20.48;;;8.20;99.90;;;;;;4994199;28;20045;-70
2022/02/16 05:41:32;;;;;;;22.35;19.73;;;8.30;99.90;;;;;;4994261;28;20048;-71
2022/02/16 05:43:58;;;;;;;25.25;19.98;;;8.30;99.90;;;;;;5009588;28;20602;-70
2022/02/16 05:46:25;;;;;;;23.13;20.65;;;8.30;99.90;;;;;;5000456;28;20060;-70
2022/02/16 05:48:51;;;;;;;24.63;20.27;;;8.30;99.90;;;;;;5024776;28;20044;-70
2022/02/16 05:51:17;;;;;;;27.17;20.42;;;8.30;99.90;;;;;;5009274;28;20105;-69
2022/02/16 05:53:44;;;;;;;28.65;22.00;;;8.30;99.90;;;;;;5010115;28;20492;-68
2022/02/16 05:56:12;;;;;;;24.40;20.83;;;8.30;99.90;;;;;;5025930;28;20084;-68
2022/02/16 05:58:38;;;;;;;31.25;22.38;;;8.30;99.90;;;;;;5026533;28;20048;-68
2022/02/16 06:01:05;;;;;;;24.95;22.13;;;8.30;99.90;;;;;;5024608;28;20041;-70
2022/02/16 06:03:43;;;;;;;29.67;21.98;;;8.30;99.90;;;;;;5025780;28;20056;-69
2022/02/16 06:06:10;;;;;;;26.02;20.05;;;8.30;99.90;;;;;;5009829;28;20508;-68
2022/02/16 06:08:37;;;;;;;25.38;20.70;;;8.30;99.90;;;;;;5025646;28;20064;-68
2022/02/16 06:11:03;;;;;;;23.80;19.98;;;8.30;99.90;;;;;;5006122;28;20099;-70
2022/02/16 06:13:31;;;;;;;24.00;20.17;;;8.20;99.90;;;;;;5012042;28;20061;-70
2022/02/16 06:15:58;;;;;;;21.85;19.35;;;8.20;99.90;;;;;;5007142;28;20250;-70
2022/02/16 06:18:24;;;;;;;23.83;18.98;;;8.30;99.90;;;;;;5025032;28;20087;-70
2022/02/16 06:20:52;;;;;;;21.67;17.83;;;8.20;99.90;;;;;;5009410;28;21435;-70
2022/02/16 06:23:20;;;;;;;21.90;17.58;;;8.20;99.90;;;;;;5008858;28;20095;-67
2022/02/16 06:25:46;;;;;;;26.63;18.88;;;8.20;99.90;;;;;;5024626;28;20040;-68
2022/02/16 06:28:16;;;;;;;20.58;17.38;;;8.20;99.90;;;;;;5024379;28;20059;-71
2022/02/16 06:30:42;;;;;;;20.92;17.10;;;8.20;99.90;;;;;;5023142;28;20645;-71
2022/02/16 06:33:13;;;;;;;18.63;15.05;;;8.20;99.90;;;;;;5038027;28;20053;-72
2022/02/16 06:35:40;;;;;;;20.02;14.75;;;8.20;99.90;;;;;;5020315;28;20142;-72
2022/02/16 06:38:06;;;;;;;17.67;13.48;;;8.20;99.90;;;;;;5034927;28;20139;-71
2022/02/16 06:40:34;;;;;;;17.55;13.23;;;8.30;99.90;;;;;;5005042;28;20628;-72
2022/02/16 06:43:04;;;;;;;16.17;12.98;;;8.30;99.90;;;;;;5019320;28;20056;-72
2022/02/16 06:45:31;;;;;;;16.38;13.18;;;8.30;99.90;;;;;;5020181;28;20109;-73
2022/02/16 06:47:59;;;;;;;13.18;11.57;;;8.30;99.90;;;;;;5037890;28;20049;-73
2022/02/16 06:50:26;;;;;;;13.43;10.18;;;8.30;99.90;;;;;;5008050;28;20095;-72
2022/02/16 06:53:12;;;;;;;12.40;10.68;;;8.30;99.90;;;;;;5024082;28;20115;-73
2022/02/16 06:55:40;;;;;;;13.93;9.82;;;8.30;99.90;;;;;;5005323;28;20041;-73
2022/02/16 06:58:06;;;;;;;11.85;9.50;;;8.40;99.90;;;;;;5023232;28;20124;-73
2022/02/16 07:00:34;;;;;;;11.77;9.88;;;8.40;99.90;;;;;;5020741;28;20040;-73
2022/02/16 07:03:02;;;;;;;14.20;10.27;;;8.40;99.90;;;;;;5037830;28;20047;-72
2022/02/16 07:05:40;;;;;;;14.20;10.45;;;8.50;99.90;;;;;;5035138;28;20125;-74
2022/02/16 07:08:11;;;;;;;12.90;9.60;;;8.50;99.90;;;;;;5023226;28;20116;-73
2022/02/16 07:10:37;;;;;;;12.52;9.40;;;8.50;99.90;;;;;;5022848;28;20043;-73
2022/02/16 07:13:04;;;;;;;11.45;9.25;;;8.60;99.90;;;;;;4987254;28;20128;-73
2022/02/16 07:15:31;;;;;;;12.13;10.20;;;8.60;99.90;;;;;;5017105;28;20095;-64
2022/02/16 07:17:58;;;;;;;12.35;9.52;;;8.60;99.90;;;;;;5025516;28;20079;-74
2022/02/16 07:20:24;;;;;;;9.93;8.93;;;8.60;99.90;;;;;;5019060;28;20045;-67
2022/02/16 07:22:50;;;;;;;11.52;8.85;;;8.70;99.90;;;;;;5026216;28;20128;-67
2022/02/16 07:25:18;;;;;;;12.15;8.88;;;8.70;99.90;;;;;;5034912;28;20052;-67
2022/02/16 07:27:44;;;;;;;11.23;8.32;;;8.70;99.90;;;;;;5007740;28;20041;-66
2022/02/16 07:30:14;;;;;;;8.60;6.70;;;8.70;99.90;;;;;;5027519;28;20049;-68
2022/02/16 07:32:43;;;;;;;8.60;7.05;;;8.80;99.90;;;;;;5021521;28;20049;-68
2022/02/16 07:35:12;;;;;;;10.75;7.95;;;8.80;99.90;;;;;;5023806;28;20575;-75
2022/02/16 07:37:42;;;;;;;7.65;5.93;;;8.80;99.90;;;;;;5021384;28;20045;-73
2022/02/16 07:40:09;;;;;;;8.15;6.20;;;8.90;99.90;;;;;;5008198;28;20041;-74
2022/02/16 07:42:36;;;;;;;7.75;5.93;;;8.90;99.90;;;;;;5024543;28;20447;-74
2022/02/16 07:45:21;;;;;;;8.32;5.88;;;8.90;99.90;;;;;;5041325;28;20135;-74
2022/02/16 07:47:47;;;;;;;7.80;5.32;;;8.90;99.90;;;;;;5040733;28;20135;-68
2022/02/16 07:50:14;;;;;;;6.55;5.50;;;8.90;99.90;;;;;;5036943;28;20483;-74
2022/02/16 07:53:04;;;;;;;6.75;4.93;;;9.00;99.90;;;;;;5041686;28;20182;-67
2022/02/16 07:55:42;;;;;;;6.20;4.60;;;9.00;99.90;;;;;;5019787;28;20049;-77
2022/02/16 07:58:08;;;;;;;5.68;4.28;;;9.10;99.90;;;;;;5020195;28;20060;-76
2022/02/16 08:00:37;;;;;;;5.95;4.40;;;9.10;99.90;;;;;;5004148;28;20044;-76
2022/02/16 08:03:14;;;;;;;6.85;4.25;;;9.10;99.90;;;;;;5022061;28;20053;-76
2022/02/16 08:05:42;;;;;;;5.65;4.30;;;9.20;99.90;;;;;;5020035;28;20579;-67
2022/02/16 08:08:13;;;;;;;6.45;4.88;;;9.10;99.90;;;;;;4991948;28;20052;-66
2022/02/16 08:10:39;;;;;;;6.45;4.20;;;9.20;99.90;;;;;;5005454;28;20553;-67
2022/02/16 08:13:06;;;;;;;5.40;3.90;;;9.20;99.90;;;;;;5004773;28;20471;-67
2022/02/16 08:15:49;;;;;;;5.47;3.80;;;9.30;99.90;;;;;;5033258;28;20181;-67
2022/02/16 08:18:15;;;;;;;5.65;4.28;;;9.30;99.90;;;;;;5005684;28;20057;-68
2022/02/16 08:20:42;;;;;;;4.72;3.75;;;9.40;99.90;;;;;;5022512;28;20459;-67
2022/02/16 08:23:14;;;;;;;4.97;3.67;;;9.40;99.90;;;;;;5022456;28;20475;-66
2022/02/16 08:25:40;;;;;;;5.60;3.72;;;9.30;99.90;;;;;;5003468;28;20049;-65
2022/02/16 08:28:12;;;;;;;;;;;9.40;99.90;;;;;;5023030;28;20056;-65
2022/02/16 08:30:38;;;;;;;5.97;4.47;;;9.40;99.90;;;;;;5023301;28;20012;-75
2022/02/16 08:33:12;;;;;;;6.40;4.73;;;9.40;99.90;;;;;;5037384;28;20057;-77
2022/02/16 08:35:47;;;;;;;6.68;5.25;;;9.50;99.90;;;;;;5035274;28;20053;-66
2022/02/16 08:38:14;;;;;;;6.38;4.72;;;9.50;99.90;;;;;;5053708;28;20371;-65
2022/02/16 08:40:40;;;;;;;7.63;5.68;;;9.60;99.90;;;;;;5039327;28;20340;-65
2022/02/16 08:43:06;;;;;;;7.00;4.65;;;9.60;99.90;;;;;;5018656;28;20053;-65
2022/02/16 08:45:32;;;;;;;7.20;4.13;;;9.70;99.90;;;;;;5022283;28;20052;-66
2022/02/16 08:47:58;;;;;;;5.65;4.18;;;9.70;99.90;;;;;;5037205;28;20465;-65
2022/02/16 08:50:25;;;;;;;5.20;4.20;;;9.70;99.90;;;;;;5036079;28;20400;-65
2022/02/16 08:52:52;;;;;;;6.22;4.30;;;9.80;99.90;;;;;;5037277;28;20045;-65
2022/02/16 08:55:18;;;;;;;4.28;3.40;;;9.80;99.90;;;;;;5020740;28;20410;-66
2022/02/16 08:57:44;;;;;;;4.57;3.45;;;9.80;99.90;;;;;;5007101;28;20076;-65
2022/02/16 09:00:11;;;;;;;4.70;3.58;;;9.80;99.90;;;;;;5006675;28;20621;-65
2022/02/16 09:02:37;;;;;;;4.63;3.70;;;9.80;99.90;;;;;;5039887;28;20103;-65
2022/02/16 09:05:05;;;;;;;5.30;4.45;;;9.90;99.90;;;;;;5040182;28;20056;-65
2022/02/16 09:07:31;;;;;;;6.10;4.75;;;9.90;99.90;;;;;;5040142;28;20045;-65
2022/02/16 09:10:03;;;;;;;4.40;3.90;;;9.90;99.90;;;;;;5007127;28;20079;-65
2022/02/16 09:12:30;;;;;;;4.65;3.97;;;9.90;99.90;;;;;;5023454;28;20526;-65
2022/02/16 09:14:57;;;;;;;5.10;4.30;;;9.90;99.90;;;;;;5039307;28;20051;-65
2022/02/16 09:17:24;;;;;;;5.60;4.78;;;9.90;99.90;;;;;;4990362;28;20041;-66
2022/02/16 09:19:52;;;;;;;7.00;5.05;;;9.90;99.90;;;;;;5024299;28;20155;-75
2022/02/16 09:22:19;;;;;;;6.68;5.63;;;9.90;99.90;;;;;;5027060;28;20533;-75
2022/02/16 09:24:46;;;;;;;7.30;6.57;;;9.90;99.90;;;;;;5026793;28;20048;-75
2022/02/16 09:27:13;;;;;;;8.88;7.90;;;10.00;99.90;;;;;;5042771;28;20061;-74
2022/02/16 09:29:41;;;;;;;9.68;8.68;;;10.00;99.90;;;;;;5026661;28;20416;-75
2022/02/16 09:32:07;;;;;;;9.32;8.40;;;10.00;99.90;;;;;;5043866;28;20070;-75
2022/02/16 09:34:33;;;;;;;14.43;10.80;;;10.10;99.90;;;;;;5010563;28;20466;-74
2022/02/16 09:36:59;;;;;;;11.85;10.57;;;10.10;99.90;;;;;;5010349;28;20052;-75
2022/02/16 09:39:26;;;;;;;13.00;10.55;;;10.20;99.90;;;;;;5009791;28;20087;-75
2022/02/16 09:41:52;;;;;;;13.85;10.30;;;10.20;99.90;;;;;;5027093;28;20040;-75
2022/02/16 09:44:29;;;;;;;12.70;10.02;;;10.20;99.90;;;;;;5043650;28;20056;-75
2022/02/16 09:46:55;;;;;;;14.40;10.10;;;10.30;99.90;;;;;;5027550;28;20049;-66
2022/02/16 09:49:22;;;;;;;11.65;8.23;;;10.40;99.90;;;;;;5026360;28;20082;-66
2022/02/16 09:51:49;;;;;;;14.55;9.63;;;10.40;99.90;;;;;;5010618;28;20127;-66
2022/02/16 09:54:15;;;;;;;16.27;8.93;;;10.50;99.90;;;;;;5043451;28;20077;-66
2022/02/16 09:56:43;;;;;;;13.13;8.70;;;10.50;99.90;;;;;;5026156;28;20399;-66
2022/02/16 09:59:11;;;;;;;14.60;7.90;;;10.60;99.90;;;;;;5026730;28;20049;-66
2022/02/16 10:02:01;;;;;;;13.13;6.82;;;10.70;99.90;;;;;;5043722;28;20075;-74
2022/02/16 10:04:30;;;;;;;15.43;7.00;;;10.70;99.90;;;;;;5025676;28;20534;-74
2022/02/16 10:06:57;;;;;;;15.55;6.90;;;10.70;99.90;;;;;;5041527;28;20640;-75
2022/02/16 10:09:26;;;;;;;11.85;6.22;;;10.70;99.90;;;;;;5040773;28;20495;-75
2022/02/16 10:11:58;;;;;;;14.63;5.70;;;10.80;99.90;;;;;;5043453;28;20334;-67
2022/02/16 10:14:30;;;;;;;11.25;4.80;;;10.80;99.90;;;;;;5043135;28;20623;-74
2022/02/16 10:17:02;;;;;;;11.60;4.22;;;10.90;99.90;;;;;;5042699;28;20041;-75
2022/02/16 10:19:54;;;;;;;13.20;4.55;;;10.90;99.90;;;;;;5039397;28;20327;-67
2022/02/16 10:22:25;;;;;;;18.52;4.53;;;10.90;99.90;;;;;;5042945;28;20500;-67
2022/02/16 10:24:52;;;;;;;12.90;4.38;;;11.00;99.90;;;;;;5026517;28;20079;-75
2022/02/16 10:27:18;;;;;;;21.88;4.72;;;10.90;99.90;;;;;;5009233;28;20063;-74
2022/02/16 10:29:45;;;;;;;18.42;4.43;;;11.00;99.90;;;;;;5042097;28;20432;-74
2022/02/16 10:32:31;;;;;;;16.25;3.47;;;11.00;99.90;;;;;;5024869;28;20058;-74
2022/02/16 10:35:00;;;;;;;13.68;4.53;;;11.00;99.90;;;;;;5041898;28;20143;-74
2022/02/16 10:37:38;;;;;;;14.98;3.30;;;11.10;99.90;;;;;;5041528;28;20045;-72
2022/02/16 10:40:15;;;;;;;13.98;3.95;;;11.10;99.90;;;;;;5041838;28;20447;-74
2022/02/16 10:42:55;;;;;;;15.93;3.10;;;11.10;99.90;;;;;;5041606;28;20045;-74
2022/02/16 10:45:24;;;;;;;10.05;3.50;;;11.20;99.90;;;;;;5009014;28;20139;-75
2022/02/16 10:47:56;;;;;;;13.88;3.92;;;11.20;99.90;;;;;;5025342;28;20045;-74
2022/02/16 10:50:27;;;;;;;13.00;3.00;;;11.30;99.90;;;;;;5024595;28;20048;-75
2022/02/16 10:53:00;;;;;;;16.92;3.65;;;11.40;99.90;;;;;;5024384;28;20440;-74
2022/02/16 10:55:48;;;;;;;12.60;2.92;;;11.40;99.90;;;;;;5037394;28;20540;-69
2022/02/16 10:58:20;;;;;;;11.32;3.28;;;11.50;99.90;;;;;;5057511;28;20075;-68
2022/02/16 11:00:49;;;;;;;16.55;2.65;;;11.40;99.90;;;;;;5025589;28;20048;-73
2022/02/16 11:03:31;;;;;;;12.30;3.15;;;11.50;99.90;;;;;;4992019;28;20045;-69
2022/02/16 11:05:59;;;;;;;15.40;3.13;;;11.60;99.90;;;;;;5025319;28;20151;-69
2022/02/16 11:08:28;;;;;;;13.27;2.90;;;11.60;99.90;;;;;;5008654;28;20041;-73
2022/02/16 11:10:55;;;;;;;12.40;2.80;;;11.60;99.90;;;;;;5025148;28;20041;-73
2022/02/16 11:13:26;;;;;;;11.10;2.83;;;11.60;99.90;;;;;;5025782;28;20526;-72
2022/02/16 11:15:53;;;;;;;12.10;2.70;;;11.60;99.90;;;;;;5040929;28;20048;-70
2022/02/16 11:18:22;;;;;;;13.15;2.58;;;11.60;99.90;;;;;;5041288;28;20059;-71
2022/02/16 11:21:09;;;;;;;11.90;3.00;;;11.70;99.90;;;;;;5025127;28;20455;-69
2022/02/16 11:23:56;;;;;;;10.63;2.97;;;11.70;99.90;;;;;;5025016;28;20044;-70
2022/02/16 11:26:31;;;;;;;12.30;2.80;;;11.70;99.90;;;;;;5040521;28;20084;-71
2022/02/16 11:28:59;;;;;;;11.55;2.70;;;11.80;99.90;;;;;;5008055;28;20462;-71
2022/02/16 11:31:31;;;;;;;8.77;2.22;;;11.80;99.90;;;;;;5040825;28;20103;-69
2022/02/16 11:34:23;;;;;;;12.77;4.35;;;11.90;99.90;;;;;;5024126;28;20053;-69
2022/02/16 11:36:53;;;;;;;10.85;2.92;;;11.90;99.90;;;;;;5007316;28;20500;-69
2022/02/16 11:39:42;;;;;;;13.20;3.63;;;11.90;99.90;;;;;;5007776;28;20502;-69
2022/02/16 11:42:12;;;;;;;10.85;2.30;;;11.90;99.90;;;;;;5008916;28;20048;-74
2022/02/16 11:44:50;;;;;;;10.07;2.25;;;12.00;99.90;;;;;;5026715;28;20048;-74
2022/02/16 11:47:38;;;;;;;13.85;2.53;;;11.90;99.90;;;;;;5026349;28;20817;-74
2022/02/16 11:50:13;;;;;;;13.20;2.42;;;11.90;99.90;;;;;;5010285;28;20044;-74
2022/02/16 11:53:01;;;;;;;14.68;3.35;;;12.00;99.90;;;;;;5009175;28;20048;-74
2022/02/16 11:55:33;;;;;;;13.07;2.80;;;12.00;99.90;;;;;;5041202;28;20562;-73
2022/02/16 11:58:02;;;;;;;12.02;2.60;;;11.90;99.90;;;;;;5026418;28;20042;-74
2022/02/16 12:00:37;;;;;;;15.07;3.63;;;12.00;99.90;;;;;;5008952;28;20052;-70
2022/02/16 12:03:06;;;;;;;12.35;3.03;;;11.90;99.90;;;;;;5008905;28;20502;-70
2022/02/16 12:06:09;;;;;;;14.90;3.20;;;11.80;99.90;;;;;;5024159;28;20089;-71
2022/02/16 12:08:37;;;;;;;12.45;2.58;;;11.80;99.90;;;;;;4999140;28;20041;-70
2022/02/16 12:11:07;;;;;;;10.70;3.05;;;11.80;99.90;;;;;;5023474;28;20140;-75
2022/02/16 12:13:42;;;;;;;11.23;2.37;;;11.80;99.90;;;;;;5006651;28;20514;-75
2022/02/16 12:16:11;;;;;;;12.27;3.45;;;11.70;99.90;;;;;;5038029;28;20068;-75
2022/02/16 12:18:38;;;;;;;13.73;3.05;;;11.70;99.90;;;;;;5019368;28;20049;-75
2022/02/16 12:21:06;;;;;;;14.13;3.15;;;11.70;99.90;;;;;;5017705;28;20586;-73
2022/02/16 12:23:39;;;;;;;12.20;2.85;;;11.70;99.90;;;;;;5034678;28;20040;-74
2022/02/16 12:26:05;;;;;;;13.60;2.67;;;11.70;99.90;;;;;;5019559;28;20132;-75
2022/02/16 12:28:48;;;;;;;12.10;3.08;;;11.60;99.90;;;;;;5020489;28;20048;-75
2022/02/16 12:31:15;;;;;;;12.13;2.97;;;11.60;99.90;;;;;;4989335;28;20132;-75
2022/02/16 12:33:41;;;;;;;12.45;3.00;;;11.50;99.90;;;;;;5033171;28;20469;-75
2022/02/16 12:36:08;;;;;;;13.73;2.70;;;11.50;99.90;;;;;;5018021;28;20067;-75
2022/02/16 12:38:36;;;;;;;10.32;3.10;;;11.50;99.90;;;;;;5022827;28;20048;-76
2022/02/16 12:41:07;;;;;;;14.73;5.68;;;11.50;99.90;;;;;;5024216;28;20049;-76
2022/02/16 12:43:35;;;;;;;13.10;3.20;;;11.50;99.90;;;;;;4989598;28;20041;-72
2022/02/16 12:46:02;;;;;;;16.23;3.53;;;11.50;99.90;;;;;;5021714;28;20041;-71
2022/02/16 12:48:28;;;;;;;15.65;4.45;;;11.50;99.90;;;;;;5047914;28;20308;-73
2022/02/16 12:51:04;;;;;;;15.52;4.30;;;11.50;99.90;;;;;;5024199;28;20516;-78